createdAt,value
2019-01-31T00:01:06.928Z,118.13
2019-01-31T00:04:21.818Z,94.40
2019-01-31T00:07:46.129Z,100.50
2019-01-31T00:10:40.959Z,93.53
2019-01-31T00:14:11.830Z,99.67
2019-01-31T00:17:16.621Z,87.00
2019-01-31T00:20:12.292Z,87.87
2019-01-31T00:23:25.363Z,89.17
2019-01-31T00:26:43.543Z,79.53
2019-01-31T00:30:05.469Z,96.10
2019-01-31T00:33:12.167Z,93.57
2019-01-31T00:36:15.159Z,86.33
2019-01-31T00:39:32.999Z,87.43
2019-01-31T00:42:07.404Z,81.97
2019-01-31T00:45:09.006Z,84.77
2019-01-31T00:48:17.976Z,77.43
2019-01-31T00:50:54.056Z,75.03
2019-01-31T00:53:43.678Z,74.73
2019-01-31T00:56:46.031Z,86.83
2019-01-31T00:59:55.248Z,68.03
2019-01-31T01:03:00.849Z,75.00
2019-01-31T01:05:58.227Z,74.63
2019-01-31T01:09:25.122Z,79.13
2019-01-31T01:12:05.462Z,82.70
2019-01-31T01:15:02.974Z,74.27
2019-01-31T01:17:51.786Z,87.50
2019-01-31T01:20:51.923Z,76.67
2019-01-31T01:24:10.117Z,85.57
2019-01-31T01:26:48.098Z,77.17
2019-01-31T01:29:56.159Z,80.17
2019-01-31T01:33:24.635Z,83.57
2019-01-31T01:36:15.953Z,77.73
2019-01-31T01:39:19.807Z,76.70
2019-01-31T01:42:24.178Z,78.33
2019-01-31T01:45:06.023Z,72.00
2019-01-31T01:47:33.434Z,76.23
2019-01-31T01:50:11.860Z,86.97
2019-01-31T01:53:39.802Z,73.67
2019-01-31T01:56:49.824Z,73.03
2019-01-31T01:59:16.920Z,74.57
2019-01-31T02:02:16.997Z,69.47
2019-01-31T02:05:05.599Z,73.60
2019-01-31T02:08:00.393Z,76.20
2019-01-31T02:11:01.868Z,83.30
2019-01-31T02:14:16.892Z,68.57
2019-01-31T02:17:32.139Z,75.23
2019-01-31T02:20:28.932Z,64.43
2019-01-31T02:23:29.122Z,73.53
2019-01-31T02:26:17.871Z,69.80
2019-01-31T02:29:28.217Z,71.37
2019-01-31T02:32:12.319Z,71.40
2019-01-31T02:35:14.069Z,70.27
2019-01-31T02:37:47.942Z,72.00
2019-01-31T02:40:47.073Z,66.83
2019-01-31T02:43:25.493Z,79.27
2019-01-31T02:46:45.709Z,68.03
2019-01-31T02:49:21.580Z,68.30
2019-01-31T02:52:26.799Z,64.50
2019-01-31T02:55:00.818Z,76.37
2019-01-31T02:58:24.894Z,64.20
2019-01-31T03:01:43.253Z,66.33
2019-01-31T03:04:39.446Z,69.40
2019-01-31T03:07:21.108Z,79.00
2019-01-31T03:10:25.375Z,65.23
2019-01-31T03:13:35.985Z,59.43
2019-01-31T03:16:47.272Z,60.57
2019-01-31T03:19:27.611Z,68.80
2019-01-31T03:22:41.584Z,63.77
2019-01-31T03:25:49.294Z,69.40
2019-01-31T03:28:54.267Z,65.67
2019-01-31T03:32:06.695Z,63.87
2019-01-31T03:35:19.503Z,59.67
2019-01-31T03:38:31.420Z,62.10
2019-01-31T03:42:05.788Z,62.43
2019-01-31T03:44:42.070Z,61.70
2019-01-31T03:47:52.643Z,69.03
2019-01-31T03:50:14.107Z,62.70
2019-01-31T03:53:18.372Z,65.50
2019-01-31T03:55:57.222Z,68.40
2019-01-31T03:58:51.597Z,71.97
2019-01-31T04:02:34.949Z,65.80
2019-01-31T04:05:43.377Z,59.00
2019-01-31T04:07:50.385Z,61.37
2019-01-31T04:09:57.724Z,60.70
2019-01-31T04:12:05.231Z,70.67
2019-01-31T04:14:12.596Z,63.93
2019-01-31T04:16:20.069Z,62.07
2019-01-31T04:18:26.995Z,61.80
2019-01-31T04:20:34.177Z,63.63
2019-01-31T04:22:41.259Z,68.37
2019-01-31T04:24:48.436Z,67.23
2019-01-31T04:26:55.392Z,65.07
2019-01-31T04:29:02.418Z,63.47
2019-01-31T04:31:09.511Z,61.63
2019-01-31T04:33:17.525Z,69.73
2019-01-31T04:35:24.566Z,64.87
2019-01-31T04:37:31.618Z,62.27
2019-01-31T04:39:39.207Z,59.93
2019-01-31T04:41:46.291Z,59.37
2019-01-31T04:43:53.311Z,57.23
2019-01-31T04:46:00.328Z,62.73
2019-01-31T04:48:07.446Z,56.77
2019-01-31T04:50:15.699Z,69.13
2019-01-31T04:52:22.708Z,63.37
2019-01-31T04:54:29.632Z,62.00
2019-01-31T04:56:36.650Z,61.37
2019-01-31T04:58:43.670Z,61.23
2019-01-31T05:00:51.968Z,61.67
2019-01-31T05:02:58.976Z,57.67
2019-01-31T05:05:07.102Z,55.30
2019-01-31T05:07:14.200Z,60.73
2019-01-31T05:09:21.219Z,66.73
2019-01-31T05:11:28.259Z,56.73
2019-01-31T05:13:35.371Z,57.97
2019-01-31T05:15:42.427Z,60.03
2019-01-31T05:17:49.444Z,59.63
2019-01-31T05:22:03.580Z,52.27
2019-01-31T05:24:10.796Z,59.00
2019-01-31T05:26:18.153Z,61.33
2019-01-31T05:28:25.506Z,66.67
2019-01-31T05:30:33.126Z,63.00
2019-01-31T05:32:40.526Z,55.83
2019-01-31T05:34:47.496Z,53.97
2019-01-31T05:36:54.505Z,54.30
2019-01-31T05:39:01.673Z,53.53
2019-01-31T05:41:08.730Z,53.30
2019-01-31T05:43:16.033Z,51.53
2019-01-31T05:45:23.240Z,51.77
2019-01-31T05:47:30.314Z,53.10
2019-01-31T05:49:37.357Z,52.60
2019-01-31T05:51:44.779Z,55.37
2019-01-31T05:53:51.779Z,50.80
2019-01-31T05:55:58.916Z,53.03
2019-01-31T05:58:05.990Z,50.93
2019-01-31T06:00:21.761Z,59.97
2019-01-31T06:02:28.994Z,61.93
2019-01-31T06:04:36.045Z,73.87
2019-01-31T06:06:43.176Z,59.97
2019-01-31T06:08:51.151Z,73.93
2019-01-31T06:11:07.207Z,78.87
2019-01-31T06:13:07.081Z,84.53
2019-01-31T06:15:16.037Z,72.60
2019-01-31T06:17:23.095Z,65.80
2019-01-31T06:19:30.158Z,68.67
2019-01-31T06:21:37.130Z,78.67
2019-01-31T06:23:44.186Z,92.87
2019-01-31T06:25:51.240Z,80.30
2019-01-31T06:27:58.357Z,72.67
2019-01-31T06:30:06.266Z,67.07
2019-01-31T06:32:13.333Z,69.00
2019-01-31T06:34:20.370Z,63.47
2019-01-31T06:36:27.531Z,78.53
2019-01-31T06:38:34.530Z,111.80
2019-01-31T06:40:41.817Z,108.83
2019-01-31T06:42:49.249Z,157.13
2019-01-31T06:44:56.345Z,83.10
2019-01-31T06:47:03.503Z,81.37
2019-01-31T06:49:10.727Z,75.07
2019-01-31T06:51:18.838Z,77.07
2019-01-31T06:53:25.937Z,67.00
2019-01-31T06:55:33.269Z,63.53
2019-01-31T06:57:40.328Z,69.63
2019-01-31T06:59:47.572Z,77.03
2019-01-31T07:01:55.067Z,66.83
2019-01-31T07:04:02.133Z,58.87
2019-01-31T07:06:09.263Z,61.47
2019-01-31T07:08:16.412Z,70.87
2019-01-31T07:10:26.487Z,70.90
2019-01-31T07:12:33.588Z,64.67
2019-01-31T07:14:40.781Z,60.30
2019-01-31T07:16:47.826Z,62.97
2019-01-31T07:18:54.997Z,59.63
2019-01-31T07:21:02.071Z,57.53
2019-01-31T07:23:09.074Z,58.83
2019-01-31T07:25:19.748Z,89.10
2019-01-31T07:27:26.853Z,72.47
2019-01-31T07:29:33.878Z,65.07
2019-01-31T07:31:40.814Z,62.23
2019-01-31T07:33:48.040Z,60.53
2019-01-31T07:35:55.149Z,66.67
2019-01-31T07:38:02.216Z,62.33
2019-01-31T07:40:10.331Z,67.13
2019-01-31T07:42:17.535Z,57.87
2019-01-31T07:44:24.664Z,56.83
2019-01-31T07:46:31.744Z,79.50
2019-01-31T07:48:38.977Z,63.73
2019-01-31T07:50:46.205Z,59.93
2019-01-31T07:52:53.353Z,64.57
2019-01-31T07:55:01.997Z,69.00
2019-01-31T07:57:09.566Z,59.87
2019-01-31T07:59:16.786Z,58.73
2019-01-31T08:01:23.867Z,57.50
2019-01-31T08:03:30.996Z,60.00
2019-01-31T08:05:38.162Z,58.40
2019-01-31T08:07:45.225Z,64.97
2019-01-31T08:09:52.389Z,66.50
2019-01-31T08:11:59.519Z,63.97
2019-01-31T08:14:06.731Z,67.03
2019-01-31T08:16:13.781Z,66.37
2019-01-31T08:18:20.931Z,80.63
2019-01-31T08:20:27.984Z,67.93
2019-01-31T08:22:35.054Z,66.40
2019-01-31T08:24:42.233Z,65.10
2019-01-31T08:26:49.263Z,54.50
2019-01-31T08:28:56.360Z,54.23
2019-01-31T08:31:03.555Z,57.30
2019-01-31T08:33:10.587Z,53.10
2019-01-31T08:35:17.590Z,55.03
2019-01-31T08:37:24.763Z,55.00
2019-01-31T08:39:31.843Z,59.37
2019-01-31T08:41:38.926Z,51.67
2019-01-31T08:43:46.733Z,47.73
2019-01-31T08:45:53.869Z,50.40
2019-01-31T08:48:00.972Z,56.97
2019-01-31T08:50:10.786Z,53.00
2019-01-31T08:52:17.840Z,53.10
2019-01-31T08:54:24.932Z,53.57
2019-01-31T08:56:31.968Z,51.93
2019-01-31T08:58:39.012Z,46.50
2019-01-31T09:00:46.043Z,46.23
2019-01-31T09:02:53.083Z,46.73
2019-01-31T09:05:00.317Z,41.03
2019-01-31T09:07:07.392Z,48.63
2019-01-31T09:09:15.910Z,40.43
2019-01-31T09:11:23.881Z,41.77
2019-01-31T09:13:31.773Z,51.97
2019-01-31T09:15:38.866Z,54.97
2019-01-31T09:17:46.067Z,68.43
2019-01-31T09:19:53.091Z,67.23
2019-01-31T09:22:24.449Z,60.90
2019-01-31T09:25:22.068Z,65.90
2019-01-31T09:28:16.431Z,50.13
2019-01-31T09:31:29.753Z,63.87
2019-01-31T09:34:42.222Z,93.07
2019-01-31T09:37:53.315Z,82.50
2019-01-31T09:41:15.543Z,72.80
2019-01-31T09:44:08.090Z,100.30
2019-01-31T09:47:08.544Z,36.17
2019-01-31T09:50:11.690Z,37.33
2019-01-31T09:53:30.875Z,35.90
2019-01-31T09:56:29.281Z,38.00
2019-01-31T09:59:28.573Z,36.03
2019-01-31T10:02:44.472Z,39.17
2019-01-31T10:05:27.706Z,37.13
2019-01-31T10:08:12.223Z,42.47
2019-01-31T10:11:17.466Z,30.90
2019-01-31T10:14:16.774Z,40.90
2019-01-31T10:17:31.434Z,39.23
2019-01-31T10:20:34.026Z,40.17
2019-01-31T10:23:12.762Z,54.27
2019-01-31T10:25:53.847Z,44.17
2019-01-31T10:28:52.855Z,35.23
2019-01-31T10:32:14.705Z,34.30
2019-01-31T10:35:30.619Z,20.43
2019-01-31T10:38:26.531Z,24.73
2019-01-31T10:41:41.700Z,30.93
2019-01-31T10:44:48.887Z,163.57
2019-01-31T10:48:12.261Z,127.43
2019-01-31T10:50:50.357Z,164.87
2019-01-31T10:53:50.329Z,76.97
2019-01-31T10:56:45.847Z,51.13
2019-01-31T10:59:16.210Z,40.40
2019-01-31T11:02:18.267Z,48.10
2019-01-31T11:05:26.196Z,47.17
2019-01-31T11:08:46.326Z,36.93
2019-01-31T11:11:19.779Z,43.57
2019-01-31T11:14:13.347Z,44.30
2019-01-31T11:17:34.549Z,39.17
2019-01-31T11:20:22.498Z,45.23
2019-01-31T11:23:14.706Z,52.53
2019-01-31T11:26:14.182Z,67.43
2019-01-31T11:29:33.977Z,63.80
2019-01-31T11:32:38.432Z,65.67
2019-01-31T11:35:45.082Z,57.90
2019-01-31T11:38:32.946Z,46.13
2019-01-31T11:41:21.625Z,60.63
2019-01-31T11:44:11.423Z,65.37
2019-01-31T11:47:12.784Z,58.37
2019-01-31T11:50:04.170Z,69.00
2019-01-31T11:53:03.598Z,75.30
2019-01-31T11:55:34.602Z,47.93
2019-01-31T11:58:58.442Z,110.07
2019-01-31T12:01:07.494Z,87.03
2019-01-31T12:03:14.585Z,79.43
2019-01-31T12:05:22.163Z,51.47
2019-01-31T12:07:29.199Z,50.20
2019-01-31T12:09:36.359Z,53.83
2019-01-31T12:11:43.514Z,57.67
2019-01-31T12:13:50.669Z,63.43
2019-01-31T12:15:57.688Z,43.93
2019-01-31T12:18:04.891Z,47.90
2019-01-31T12:20:12.515Z,52.10
2019-01-31T12:22:19.594Z,57.20
2019-01-31T12:24:26.701Z,50.87
2019-01-31T12:26:33.799Z,55.07
2019-01-31T12:28:41.458Z,69.23
2019-01-31T12:30:48.555Z,77.33
2019-01-31T12:32:55.564Z,99.73
2019-01-31T12:35:02.753Z,68.33
2019-01-31T12:37:09.870Z,62.73
2019-01-31T12:39:16.970Z,68.37
2019-01-31T12:41:24.085Z,54.03
2019-01-31T12:43:35.262Z,63.60
2019-01-31T12:45:39.985Z,69.40
2019-01-31T12:47:47.141Z,53.97
2019-01-31T12:49:54.298Z,85.47
2019-01-31T12:52:04.082Z,61.60
2019-01-31T12:54:10.267Z,59.77
2019-01-31T12:56:17.433Z,68.03
2019-01-31T12:58:33.358Z,53.30
2019-01-31T13:00:33.273Z,72.50
2019-01-31T13:02:40.497Z,71.60
2019-01-31T13:04:47.648Z,64.30
2019-01-31T13:06:54.879Z,56.73
2019-01-31T13:09:02.039Z,60.97
2019-01-31T13:11:09.172Z,63.53
2019-01-31T13:13:16.384Z,71.80
2019-01-31T13:15:23.453Z,68.60
2019-01-31T13:17:30.543Z,150.50
2019-01-31T13:19:37.830Z,63.53
2019-01-31T13:21:44.983Z,79.33
2019-01-31T13:23:52.215Z,63.77
2019-01-31T13:25:59.334Z,62.70
2019-01-31T13:28:06.437Z,64.80
2019-01-31T13:30:17.218Z,70.57
2019-01-31T13:32:24.963Z,61.67
2019-01-31T13:34:32.185Z,58.47
2019-01-31T13:36:39.281Z,75.53
2019-01-31T13:38:46.368Z,74.63
2019-01-31T13:40:53.489Z,66.53
2019-01-31T13:43:00.728Z,60.87
2019-01-31T13:45:10.000Z,86.63
2019-01-31T13:47:17.593Z,87.93
2019-01-31T13:49:24.790Z,92.10
2019-01-31T13:51:31.956Z,85.03
2019-01-31T13:53:39.327Z,74.73
2019-01-31T13:55:46.620Z,77.83
2019-01-31T13:57:54.149Z,95.27
2019-01-31T14:00:01.397Z,78.87
2019-01-31T14:02:09.421Z,85.73
2019-01-31T14:04:16.885Z,80.73
2019-01-31T14:06:23.918Z,107.60
2019-01-31T14:08:31.144Z,160.30
2019-01-31T14:10:38.382Z,88.97
2019-01-31T14:12:45.680Z,68.87
2019-01-31T14:14:52.887Z,104.97
2019-01-31T14:17:00.112Z,93.93
2019-01-31T14:19:07.455Z,85.80
2019-01-31T14:21:14.906Z,85.50
2019-01-31T14:23:22.233Z,66.97
2019-01-31T14:25:29.633Z,64.60
2019-01-31T14:27:37.006Z,122.23
2019-01-31T14:29:44.261Z,111.80
2019-01-31T14:31:51.513Z,109.77
2019-01-31T14:33:58.631Z,67.93
2019-01-31T14:36:05.879Z,71.93
2019-01-31T14:38:13.307Z,82.47
2019-01-31T14:40:20.455Z,70.87
2019-01-31T14:42:27.603Z,73.27
2019-01-31T14:44:34.839Z,77.77
2019-01-31T14:46:41.889Z,86.97
2019-01-31T14:48:48.957Z,127.60
2019-01-31T14:50:56.080Z,123.80
2019-01-31T14:53:03.756Z,141.30
2019-01-31T14:55:11.327Z,143.90
2019-01-31T14:57:18.492Z,143.77
2019-01-31T14:59:25.679Z,146.23
2019-01-31T15:01:32.921Z,131.73
2019-01-31T15:03:40.482Z,121.90
2019-01-31T15:05:47.762Z,112.53
2019-01-31T15:07:54.879Z,81.83
2019-01-31T15:10:02.172Z,79.97
2019-01-31T15:12:09.333Z,69.93
2019-01-31T15:14:16.417Z,70.70
2019-01-31T15:16:23.532Z,68.70
2019-01-31T15:18:30.824Z,69.10
2019-01-31T15:20:44.303Z,87.40
2019-01-31T15:22:51.440Z,89.77
2019-01-31T15:24:58.704Z,90.53
2019-01-31T15:27:05.817Z,83.63
2019-01-31T15:29:13.083Z,81.73
2019-01-31T15:31:20.411Z,64.77
2019-01-31T15:33:27.861Z,70.13
2019-01-31T15:35:35.148Z,69.63
2019-01-31T15:37:42.300Z,72.13
2019-01-31T15:39:49.518Z,69.53
2019-01-31T15:41:56.680Z,70.67
2019-01-31T15:44:03.881Z,68.23
2019-01-31T15:46:12.840Z,72.70
2019-01-31T15:48:19.933Z,85.60
2019-01-31T15:50:27.032Z,72.77
2019-01-31T15:52:34.126Z,83.80
2019-01-31T15:54:41.292Z,74.77
2019-01-31T15:56:48.540Z,81.10
2019-01-31T15:58:55.691Z,83.73
2019-01-31T16:01:02.969Z,83.07
2019-01-31T16:03:13.046Z,81.67
2019-01-31T16:05:20.128Z,108.53
2019-01-31T16:07:27.231Z,99.80
2019-01-31T16:09:34.339Z,153.47
2019-01-31T16:11:41.251Z,162.63
2019-01-31T16:13:48.820Z,146.27
2019-01-31T16:15:56.058Z,113.27
2019-01-31T16:18:03.168Z,115.50
2019-01-31T16:20:12.235Z,101.97
2019-01-31T16:22:19.345Z,108.70
2019-01-31T16:24:26.512Z,93.57
2019-01-31T16:26:33.596Z,85.50
2019-01-31T16:28:40.755Z,83.87
2019-01-31T16:30:50.732Z,82.80
2019-01-31T16:32:58.183Z,93.67
2019-01-31T16:35:06.039Z,96.47
2019-01-31T16:37:13.265Z,109.77
2019-01-31T16:39:20.328Z,124.07
2019-01-31T16:41:27.815Z,126.27
2019-01-31T16:43:35.322Z,124.40
2019-01-31T16:45:45.895Z,145.23
2019-01-31T16:47:51.599Z,155.80
2019-01-31T16:49:58.695Z,139.37
2019-01-31T16:52:06.487Z,128.80
2019-01-31T16:54:14.314Z,137.50
2019-01-31T16:56:21.812Z,132.20
2019-01-31T16:58:29.137Z,120.83
2019-01-31T17:00:36.347Z,126.30
2019-01-31T17:02:44.833Z,150.17
2019-01-31T17:04:52.176Z,137.20
2019-01-31T17:06:59.801Z,139.33
2019-01-31T17:09:10.201Z,146.70
2019-01-31T17:11:17.698Z,123.40
2019-01-31T17:13:24.959Z,133.77
2019-01-31T17:15:32.280Z,137.70
2019-01-31T17:17:39.780Z,122.07
2019-01-31T17:19:46.903Z,123.13
2019-01-31T17:21:54.175Z,121.87
2019-01-31T17:24:01.763Z,119.17
2019-01-31T17:26:09.289Z,88.67
2019-01-31T17:28:16.780Z,89.10
2019-01-31T17:30:25.620Z,96.47
2019-01-31T17:32:32.779Z,86.57
2019-01-31T17:34:40.781Z,94.47
2019-01-31T17:36:48.617Z,94.87
2019-01-31T17:38:56.169Z,112.67
2019-01-31T17:41:04.253Z,106.87
2019-01-31T17:43:13.422Z,109.67
2019-01-31T17:45:30.021Z,112.97
2019-01-31T17:47:29.833Z,116.37
2019-01-31T17:49:37.109Z,113.23
2019-01-31T17:51:44.305Z,124.17
2019-01-31T17:53:51.670Z,132.43
2019-01-31T17:55:58.932Z,154.73
2019-01-31T17:58:06.659Z,157.00
2019-01-31T18:00:24.427Z,145.33
2019-01-31T18:02:31.943Z,168.63
2019-01-31T18:04:39.315Z,126.93
2019-01-31T18:06:47.223Z,116.53
2019-01-31T18:08:54.634Z,125.30
2019-01-31T18:11:02.067Z,151.30
2019-01-31T18:13:10.422Z,145.30
2019-01-31T18:15:18.662Z,149.10
2019-01-31T18:17:29.821Z,120.43
2019-01-31T18:19:35.805Z,124.07
2019-01-31T18:21:43.414Z,120.80
2019-01-31T18:23:51.096Z,118.63
2019-01-31T18:25:59.362Z,107.57
2019-01-31T18:28:07.365Z,95.17
2019-01-31T18:30:22.049Z,97.30
2019-01-31T18:32:29.928Z,101.33
2019-01-31T18:34:38.849Z,95.23
2019-01-31T18:36:46.830Z,136.43
2019-01-31T18:38:57.534Z,138.40
2019-01-31T18:41:04.226Z,139.77
2019-01-31T18:43:11.560Z,131.23
2019-01-31T18:45:22.478Z,146.00
2019-01-31T18:47:30.712Z,134.77
2019-01-31T18:49:38.672Z,187.17
2019-01-31T18:51:46.359Z,222.07
2019-01-31T18:53:54.366Z,195.20
2019-01-31T18:56:02.433Z,218.43
2019-01-31T18:58:11.581Z,202.80
2019-01-31T19:00:24.408Z,225.13
2019-01-31T19:02:31.647Z,193.57
2019-01-31T19:04:38.729Z,184.83
2019-01-31T19:06:45.951Z,157.73
2019-01-31T19:08:53.053Z,165.87
2019-01-31T19:11:00.405Z,121.83
2019-01-31T19:13:08.373Z,112.17
2019-01-31T19:15:16.844Z,109.17
2019-01-31T19:17:24.506Z,112.03
2019-01-31T19:19:31.819Z,102.33
2019-01-31T19:21:39.005Z,117.30
2019-01-31T19:23:46.261Z,137.00
2019-01-31T19:25:53.472Z,121.07
2019-01-31T19:28:00.558Z,106.93
2019-01-31T19:30:19.098Z,108.13
2019-01-31T19:32:26.328Z,101.80
2019-01-31T19:34:33.601Z,99.30
2019-01-31T19:36:41.069Z,93.20
2019-01-31T19:38:48.354Z,86.73
2019-01-31T19:40:55.758Z,93.43
2019-01-31T19:43:03.043Z,100.10
2019-01-31T19:45:15.872Z,182.93
2019-01-31T19:47:23.349Z,167.20
2019-01-31T19:49:31.656Z,146.23
2019-01-31T19:51:38.808Z,146.20
2019-01-31T19:53:48.391Z,125.73
2019-01-31T19:55:55.101Z,107.83
2019-01-31T19:58:02.291Z,101.80
2019-01-31T20:00:11.580Z,108.67
2019-01-31T20:02:19.118Z,99.13
2019-01-31T20:04:26.359Z,116.43
2019-01-31T20:06:33.997Z,124.97
2019-01-31T20:08:41.699Z,118.27
2019-01-31T20:10:49.322Z,125.63
2019-01-31T20:12:58.431Z,124.30
2019-01-31T20:15:07.315Z,152.17
2019-01-31T20:17:14.928Z,133.57
2019-01-31T20:19:22.903Z,128.63
2019-01-31T20:21:30.762Z,115.00
2019-01-31T20:23:38.414Z,130.37
2019-01-31T20:25:52.741Z,100.57
2019-01-31T20:28:00.442Z,88.20
2019-01-31T20:30:09.456Z,106.40
2019-01-31T20:32:16.605Z,107.13
2019-01-31T20:34:24.279Z,83.40
2019-01-31T20:36:32.153Z,66.13
2019-01-31T20:38:40.321Z,68.57
2019-01-31T20:40:47.692Z,57.40
2019-01-31T20:42:54.800Z,62.73
2019-01-31T20:45:01.975Z,81.40
2019-01-31T20:47:09.081Z,66.07
2019-01-31T20:49:16.256Z,60.53
2019-01-31T20:51:23.459Z,61.17
2019-01-31T20:53:30.737Z,70.90
2019-01-31T20:55:37.873Z,67.27
2019-01-31T20:57:45.110Z,72.57
2019-01-31T20:59:58.086Z,69.83
2019-01-31T21:02:05.400Z,57.40
2019-01-31T21:04:12.607Z,56.03
2019-01-31T21:06:19.851Z,68.73
2019-01-31T21:08:27.223Z,72.77
2019-01-31T21:10:34.530Z,70.17
2019-01-31T21:12:41.759Z,64.93
2019-01-31T21:14:49.099Z,72.53
2019-01-31T21:16:56.324Z,73.20
2019-01-31T21:19:03.400Z,66.43
2019-01-31T21:21:10.495Z,63.80
2019-01-31T21:23:17.809Z,57.97
2019-01-31T21:25:24.995Z,64.23
2019-01-31T21:27:32.241Z,69.73
2019-01-31T21:29:39.537Z,77.43
2019-01-31T21:31:46.644Z,76.73
2019-01-31T21:33:53.966Z,77.43
2019-01-31T21:36:01.092Z,75.27
2019-01-31T21:38:08.784Z,84.00
2019-01-31T21:40:15.938Z,83.97
2019-01-31T21:42:23.065Z,84.27
2019-01-31T21:44:30.332Z,113.03
2019-01-31T21:46:37.530Z,75.70
2019-01-31T21:48:44.810Z,90.17
2019-01-31T21:50:52.011Z,82.67
2019-01-31T21:52:59.147Z,60.40
2019-01-31T21:55:07.107Z,55.97
2019-01-31T21:57:14.205Z,56.77
2019-01-31T21:59:21.459Z,53.53
2019-01-31T22:01:28.903Z,55.07
2019-01-31T22:03:36.238Z,49.97
2019-01-31T22:05:43.658Z,55.87
2019-01-31T22:07:51.246Z,56.57
2019-01-31T22:09:58.995Z,74.90
2019-01-31T22:12:06.323Z,71.10
2019-01-31T22:14:14.042Z,87.60
2019-01-31T22:16:21.961Z,88.00
2019-01-31T22:18:29.363Z,78.13
2019-01-31T22:20:37.576Z,79.33
2019-01-31T22:22:45.641Z,68.37
2019-01-31T22:24:52.721Z,57.23
2019-01-31T22:26:59.922Z,72.53
2019-01-31T22:29:08.361Z,61.00
2019-01-31T22:31:15.785Z,63.33
2019-01-31T22:33:22.890Z,64.93
2019-01-31T22:35:30.102Z,55.00
2019-01-31T22:37:37.407Z,58.60
2019-01-31T22:39:44.515Z,64.07
2019-01-31T22:41:51.666Z,67.57
2019-01-31T22:43:58.955Z,61.80
2019-01-31T22:46:06.121Z,62.30
2019-01-31T22:48:13.458Z,62.37
2019-01-31T22:50:22.225Z,63.13
2019-01-31T22:52:29.300Z,60.07
2019-01-31T22:54:36.534Z,62.77
2019-01-31T22:56:43.603Z,69.00
2019-01-31T22:58:50.734Z,57.83
2019-01-31T23:01:39.351Z,57.70
2019-01-31T23:03:46.538Z,55.83
2019-01-31T23:05:53.682Z,48.63
2019-01-31T23:08:00.894Z,50.77
2019-01-31T23:10:08.571Z,53.87
2019-01-31T23:12:15.695Z,60.33
2019-01-31T23:14:22.930Z,54.63
2019-01-31T23:16:30.408Z,53.07
2019-01-31T23:18:37.600Z,51.43
2019-01-31T23:20:44.828Z,52.20
2019-01-31T23:22:52.031Z,58.00
2019-01-31T23:24:59.084Z,52.27
2019-01-31T23:27:06.226Z,47.57
2019-01-31T23:29:13.298Z,48.20
2019-01-31T23:31:20.503Z,52.17
2019-01-31T23:33:27.578Z,46.90
2019-01-31T23:35:34.799Z,49.20
2019-01-31T23:37:41.951Z,47.73
2019-01-31T23:39:49.136Z,45.87
2019-01-31T23:41:56.264Z,53.20
2019-01-31T23:44:03.393Z,60.67
2019-01-31T23:46:10.466Z,60.53
2019-01-31T23:48:17.696Z,54.73
2019-01-31T23:50:24.745Z,43.47
2019-01-31T23:52:31.821Z,49.90
2019-01-31T23:54:38.967Z,54.37
2019-01-31T23:56:46.072Z,54.83
2019-01-31T23:58:53.158Z,52.67
